Keyes, OK

11:23 PM CDT on September 01, 2015 (GMT -0500)
Fort Wiegers | | Change Station
CLOSE
Current Station
Personal Weather Station
Location: Elkhart, KS
Elevation: 3554 ft
Nearby Weather Stations

Elev 3554 ft 37.04 °N, 101.97 °W | Updated 6 seconds ago

Partly Cloudy
Partly Cloudy
72.7 °F
Feels Like 77 °F
N
10.0
Wind Variable Wind from South
Gusts 13.0 mph

Today
High -- | Low -- °F
--% Chance of Precip.
Yesterday
High -- | Low -- °F
Precip. -- in
7:19 AM 8:17 PM
Waning Gibbous, 84% visible
Pressure 29.85 in
Visibility 10.0 miles
Clouds Scattered Clouds 12000 ft
Heat Index 77 °F
Dew Point 57 °F
Humidity 57%
Rainfall 0.00 in
Snow Depth Not available.
UV 0 out of 12
Pollen 10.00 out of 12
Air Quality Not available.
Flu Activity Not available.
METAR KGUY 020353Z AUTO 22012KT 10SM SCT120 26/15 A3000 RMK AO2 SLP108 T02560150
Pressure 29.85 in
Visibility 10.0 miles
Clouds Scattered Clouds 12000 ft
Heat Index 77 °F
Dew Point 57 °F
Humidity 57%
Rainfall 0.00 in
Snow Depth Not available.
UV 0 out of 12
Pollen 10.00 out of 12
Air Quality Not available.
Flu Activity Not available.
METAR KGUY 020353Z AUTO 22012KT 10SM SCT120 26/15 A3000 RMK AO2 SLP108 T02560150

10-Day Weather Forecast

×

Almanac

Astronomy

Sep. 01, 2015 Rise Set
Actual Time
Civil Twilight
Nautical Twilight
Astronomical Twilight
Moon
Length of Visible Light
Length of Day
Tomorrow will be .
, % of the Moon is Illuminated

Today's Extremes

State Highs State Lows

Community

WunderPhotos

Upload Photos

1,851,695 photos uploaded!

WunderBlogs® & News

Nearby

Air Quality

  Air Quality AQ Index Pollutant
Not available.

Snow Depth

Station Depth Elevation

Earthquake Activity

City Distance Mag. Time & Date
Minimum magnitude displayed is 2.5.

Coastal Water Temperatures

Place Temperature

Stations

Nearby Weather Stations

Station Location Temp. Windchill Dew Point Humidity Wind Precip. Elev Updated Type